Hlavní strana
METAR-TAF:

METAR-TAF

Letiště :

Estevan, Saskatchewan, Kanada

zeměpisná šířka: 49-13N, zeměpisná délka: 102-58W, výška: 572 m

Aktuální stav počasí

Zpráva byla vytvořena před 30 minutami, v 22:00 UTC
Jihozápadní vítr 14 kt s nárazy do 21 kt
Teplota 18°C
Vlhkost vzduchu 30%
Tlak 1021 hPa
Jasno

METAR: CYEN 172200Z AUTO 22014G21KT CLR 18/M00 A3014 RMK WX MISG VIS MISG PCPN MISG SLP223 DENSITY ALT 2400FT

Čas: 16:30 (22:30 UTC)

Předpověď počasí

Zpráva byla vytvořena před 4 hodinami a 25 minutami, v 18:05 UTC
Předpověď platná od 17 v 18 UTC do 17 v 24 UTC
Jihozápadní vítr 10 kt
Viditelnost: 10 km
Jasno

TAF: CYEN 171805Z 1718/1724 22010KT P6SM SKC RMK FCST BASED ON AUTO OBS. FCST BASED ON OBS OBTAINED FROM OTHER SOURCES. NXT FCST WILL BE ISSUED AT 181145Z

Stav a předpovědi počasí z více než 4 000 letišť (zprávy METAR a TAF).

Červené a žluté tečky na mapě představují dostupné meteorologické stanice.

Když kurzor umístíte na tečku, zobrazí se název stanice.

Pak kliknutím zobrazíte stav a předpověď počasí.

Chcete-li změnit mapu, kliknutím na zelené tlačítko se znaménkem +mapu přiblížíte, kliknutím na zelené tlačítko se znaménkem – mapu oddálíte a kliknutím na zelené šipky přejdete na sousední mapy.


METAR-TAF: